sensor_id;sensor_type;location;lat;lon;timestamp;temperature;humidity
35746;DHT22;21870;42.812;74.628;2023-07-08T00:00:47;18.90;99.90
35746;DHT22;21870;42.812;74.628;2023-07-08T00:03:14;18.90;99.90
35746;DHT22;21870;42.812;74.628;2023-07-08T00:05:41;19.00;99.90
35746;DHT22;21870;42.812;74.628;2023-07-08T00:08:14;19.10;99.90
35746;DHT22;21870;42.812;74.628;2023-07-08T00:10:41;19.10;99.90
35746;DHT22;21870;42.812;74.628;2023-07-08T00:13:08;19.10;99.90
35746;DHT22;21870;42.812;74.628;2023-07-08T00:15:36;19.10;99.90
35746;DHT22;21870;42.812;74.628;2023-07-08T00:18:15;19.20;99.90
35746;DHT22;21870;42.812;74.628;2023-07-08T00:20:49;19.10;99.90
35746;DHT22;21870;42.812;74.628;2023-07-08T00:23:16;19.10;99.90
35746;DHT22;21870;42.812;74.628;2023-07-08T00:25:42;19.20;99.90
35746;DHT22;21870;42.812;74.628;2023-07-08T00:28:18;19.20;99.90
35746;DHT22;21870;42.812;74.628;2023-07-08T00:30:45;19.20;99.90
35746;DHT22;21870;42.812;74.628;2023-07-08T00:33:11;19.20;99.90
35746;DHT22;21870;42.812;74.628;2023-07-08T00:35:42;19.30;99.90
35746;DHT22;21870;42.812;74.628;2023-07-08T00:38:26;19.40;99.90
35746;DHT22;21870;42.812;74.628;2023-07-08T00:43:29;19.50;99.90
35746;DHT22;21870;42.812;74.628;2023-07-08T00:46:15;19.60;99.90
35746;DHT22;21870;42.812;74.628;2023-07-08T00:48:47;19.70;99.90
35746;DHT22;21870;42.812;74.628;2023-07-08T00:51:15;19.70;99.90
35746;DHT22;21870;42.812;74.628;2023-07-08T00:53:43;19.80;99.90
35746;DHT22;21870;42.812;74.628;2023-07-08T00:59:05;19.80;99.90
35746;DHT22;21870;42.812;74.628;2023-07-08T01:01:35;19.80;99.90
35746;DHT22;21870;42.812;74.628;2023-07-08T01:04:10;20.00;99.90
35746;DHT22;21870;42.812;74.628;2023-07-08T01:06:40;20.10;99.90
35746;DHT22;21870;42.812;74.628;2023-07-08T01:09:09;20.10;99.90
35746;DHT22;21870;42.812;74.628;2023-07-08T01:11:37;20.20;99.90
35746;DHT22;21870;42.812;74.628;2023-07-08T01:14:06;20.20;99.90
35746;DHT22;21870;42.812;74.628;2023-07-08T01:16:34;20.20;99.90
35746;DHT22;21870;42.812;74.628;2023-07-08T01:19:01;20.30;99.90
35746;DHT22;21870;42.812;74.628;2023-07-08T01:21:32;20.30;99.90
35746;DHT22;21870;42.812;74.628;2023-07-08T01:24:00;20.30;99.90
35746;DHT22;21870;42.812;74.628;2023-07-08T01:26:27;20.40;99.90
35746;DHT22;21870;42.812;74.628;2023-07-08T01:28:55;20.50;99.90
35746;DHT22;21870;42.812;74.628;2023-07-08T01:31:23;20.50;99.90
35746;DHT22;21870;42.812;74.628;2023-07-08T01:33:49;20.70;99.90
35746;DHT22;21870;42.812;74.628;2023-07-08T01:36:17;20.80;99.90
35746;DHT22;21870;42.812;74.628;2023-07-08T01:38:44;20.90;99.90
35746;DHT22;21870;42.812;74.628;2023-07-08T01:41:16;21.00;99.90
35746;DHT22;21870;42.812;74.628;2023-07-08T01:43:43;21.10;99.90
35746;DHT22;21870;42.812;74.628;2023-07-08T01:46:19;21.20;99.90
35746;DHT22;21870;42.812;74.628;2023-07-08T01:48:51;21.30;99.90
35746;DHT22;21870;42.812;74.628;2023-07-08T01:51:17;21.40;99.90
35746;DHT22;21870;42.812;74.628;2023-07-08T01:53:44;21.50;99.90
35746;DHT22;21870;42.812;74.628;2023-07-08T01:56:11;21.60;99.90
35746;DHT22;21870;42.812;74.628;2023-07-08T01:58:38;21.70;99.90
35746;DHT22;21870;42.812;74.628;2023-07-08T02:01:05;21.80;99.90
35746;DHT22;21870;42.812;74.628;2023-07-08T02:03:31;22.00;99.90
35746;DHT22;21870;42.812;74.628;2023-07-08T02:05:57;22.20;99.90
35746;DHT22;21870;42.812;74.628;2023-07-08T02:08:24;22.30;99.90
35746;DHT22;21870;42.812;74.628;2023-07-08T02:10:52;22.40;99.90
35746;DHT22;21870;42.812;74.628;2023-07-08T02:13:20;22.50;99.90
35746;DHT22;21870;42.812;74.628;2023-07-08T02:15:46;22.60;99.90
35746;DHT22;21870;42.812;74.628;2023-07-08T02:18:13;22.80;99.90
35746;DHT22;21870;42.812;74.628;2023-07-08T02:20:39;22.90;99.90
35746;DHT22;21870;42.812;74.628;2023-07-08T02:23:05;23.00;99.90
35746;DHT22;21870;42.812;74.628;2023-07-08T02:25:31;22.90;99.90
35746;DHT22;21870;42.812;74.628;2023-07-08T02:27:57;22.80;99.90
35746;DHT22;21870;42.812;74.628;2023-07-08T02:30:24;22.90;99.90
35746;DHT22;21870;42.812;74.628;2023-07-08T02:32:50;22.90;99.90
35746;DHT22;21870;42.812;74.628;2023-07-08T02:35:29;23.00;99.90
35746;DHT22;21870;42.812;74.628;2023-07-08T02:37:56;22.90;99.90
35746;DHT22;21870;42.812;74.628;2023-07-08T02:40:24;23.00;99.90
35746;DHT22;21870;42.812;74.628;2023-07-08T02:42:50;23.10;99.90
35746;DHT22;21870;42.812;74.628;2023-07-08T02:45:17;23.20;99.90
35746;DHT22;21870;42.812;74.628;2023-07-08T02:47:43;23.40;99.90
35746;DHT22;21870;42.812;74.628;2023-07-08T02:50:10;23.60;99.90
35746;DHT22;21870;42.812;74.628;2023-07-08T02:52:37;23.80;99.90
35746;DHT22;21870;42.812;74.628;2023-07-08T02:55:04;24.00;99.90
35746;DHT22;21870;42.812;74.628;2023-07-08T02:57:30;24.20;99.90
35746;DHT22;21870;42.812;74.628;2023-07-08T02:59:56;24.40;99.90
35746;DHT22;21870;42.812;74.628;2023-07-08T03:02:23;24.50;99.90
35746;DHT22;21870;42.812;74.628;2023-07-08T03:04:49;24.60;99.90
35746;DHT22;21870;42.812;74.628;2023-07-08T03:07:16;24.70;99.90
35746;DHT22;21870;42.812;74.628;2023-07-08T03:09:43;24.90;99.90
35746;DHT22;21870;42.812;74.628;2023-07-08T03:12:10;25.00;99.90
35746;DHT22;21870;42.812;74.628;2023-07-08T03:14:37;25.10;99.90
35746;DHT22;21870;42.812;74.628;2023-07-08T03:17:04;25.20;99.90
35746;DHT22;21870;42.812;74.628;2023-07-08T03:19:30;25.10;99.90
35746;DHT22;21870;42.812;74.628;2023-07-08T03:21:57;25.10;99.90
35746;DHT22;21870;42.812;74.628;2023-07-08T03:24:24;25.20;99.90
35746;DHT22;21870;42.812;74.628;2023-07-08T03:26:50;25.40;99.90
35746;DHT22;21870;42.812;74.628;2023-07-08T03:29:19;25.50;99.90
35746;DHT22;21870;42.812;74.628;2023-07-08T03:31:46;25.50;99.90
35746;DHT22;21870;42.812;74.628;2023-07-08T03:34:13;25.50;99.90
35746;DHT22;21870;42.812;74.628;2023-07-08T03:36:47;25.50;99.90
35746;DHT22;21870;42.812;74.628;2023-07-08T03:39:18;25.40;99.90
35746;DHT22;21870;42.812;74.628;2023-07-08T03:41:44;25.50;99.90
35746;DHT22;21870;42.812;74.628;2023-07-08T03:44:11;25.50;99.90
35746;DHT22;21870;42.812;74.628;2023-07-08T03:46:38;25.50;99.90
35746;DHT22;21870;42.812;74.628;2023-07-08T03:49:05;25.40;99.90
35746;DHT22;21870;42.812;74.628;2023-07-08T03:51:36;25.30;99.90
35746;DHT22;21870;42.812;74.628;2023-07-08T03:54:04;25.20;99.90
35746;DHT22;21870;42.812;74.628;2023-07-08T03:56:30;25.10;99.90
35746;DHT22;21870;42.812;74.628;2023-07-08T03:58:56;24.90;99.90
35746;DHT22;21870;42.812;74.628;2023-07-08T04:01:24;24.80;99.90
35746;DHT22;21870;42.812;74.628;2023-07-08T04:03:51;24.70;99.90
35746;DHT22;21870;42.812;74.628;2023-07-08T04:06:18;24.70;99.90
35746;DHT22;21870;42.812;74.628;2023-07-08T04:08:44;24.70;99.90
35746;DHT22;21870;42.812;74.628;2023-07-08T04:11:16;24.60;99.90
35746;DHT22;21870;42.812;74.628;2023-07-08T04:13:43;24.50;99.90
35746;DHT22;21870;42.812;74.628;2023-07-08T04:16:18;24.50;99.90
35746;DHT22;21870;42.812;74.628;2023-07-08T04:18:44;24.50;99.90
35746;DHT22;21870;42.812;74.628;2023-07-08T04:21:11;24.40;99.90
35746;DHT22;21870;42.812;74.628;2023-07-08T04:23:37;24.60;99.90
35746;DHT22;21870;42.812;74.628;2023-07-08T04:26:03;24.60;99.90
35746;DHT22;21870;42.812;74.628;2023-07-08T04:28:29;24.60;99.90
35746;DHT22;21870;42.812;74.628;2023-07-08T04:30:55;24.60;99.90
35746;DHT22;21870;42.812;74.628;2023-07-08T04:33:21;24.50;99.90
35746;DHT22;21870;42.812;74.628;2023-07-08T04:35:47;24.50;99.90
35746;DHT22;21870;42.812;74.628;2023-07-08T04:38:19;24.50;99.90
35746;DHT22;21870;42.812;74.628;2023-07-08T04:40:48;24.50;99.90
35746;DHT22;21870;42.812;74.628;2023-07-08T04:43:14;24.50;99.90
35746;DHT22;21870;42.812;74.628;2023-07-08T04:45:42;24.70;99.90
35746;DHT22;21870;42.812;74.628;2023-07-08T04:48:16;24.90;99.90
35746;DHT22;21870;42.812;74.628;2023-07-08T04:50:44;25.00;99.90
35746;DHT22;21870;42.812;74.628;2023-07-08T04:53:10;25.10;99.90
35746;DHT22;21870;42.812;74.628;2023-07-08T04:55:47;25.20;99.90
35746;DHT22;21870;42.812;74.628;2023-07-08T04:58:14;25.40;99.90
35746;DHT22;21870;42.812;74.628;2023-07-08T05:00:40;25.70;99.90
35746;DHT22;21870;42.812;74.628;2023-07-08T05:03:06;26.00;99.90
35746;DHT22;21870;42.812;74.628;2023-07-08T05:05:32;26.00;99.90
35746;DHT22;21870;42.812;74.628;2023-07-08T05:07:58;26.10;99.90
35746;DHT22;21870;42.812;74.628;2023-07-08T05:10:24;25.90;99.90
35746;DHT22;21870;42.812;74.628;2023-07-08T05:12:50;25.80;99.90
35746;DHT22;21870;42.812;74.628;2023-07-08T05:15:16;25.80;99.90
35746;DHT22;21870;42.812;74.628;2023-07-08T05:17:43;25.80;99.90
35746;DHT22;21870;42.812;74.628;2023-07-08T05:20:12;25.80;99.90
35746;DHT22;21870;42.812;74.628;2023-07-08T05:22:38;26.00;99.90
35746;DHT22;21870;42.812;74.628;2023-07-08T05:25:05;26.20;99.90
35746;DHT22;21870;42.812;74.628;2023-07-08T05:27:32;26.30;99.90
35746;DHT22;21870;42.812;74.628;2023-07-08T05:30:02;26.40;99.90
35746;DHT22;21870;42.812;74.628;2023-07-08T05:32:28;26.30;99.90
35746;DHT22;21870;42.812;74.628;2023-07-08T05:34:54;26.30;99.90
35746;DHT22;21870;42.812;74.628;2023-07-08T05:37:21;26.50;99.90
35746;DHT22;21870;42.812;74.628;2023-07-08T05:39:53;26.70;99.90
35746;DHT22;21870;42.812;74.628;2023-07-08T05:42:20;26.90;99.90
35746;DHT22;21870;42.812;74.628;2023-07-08T05:44:47;27.20;99.90
35746;DHT22;21870;42.812;74.628;2023-07-08T05:47:14;27.40;99.90
35746;DHT22;21870;42.812;74.628;2023-07-08T05:49:40;27.60;99.90
35746;DHT22;21870;42.812;74.628;2023-07-08T05:52:07;27.80;99.90
35746;DHT22;21870;42.812;74.628;2023-07-08T05:54:37;28.00;99.90
35746;DHT22;21870;42.812;74.628;2023-07-08T05:57:05;28.10;99.90
35746;DHT22;21870;42.812;74.628;2023-07-08T05:59:31;28.30;99.90
35746;DHT22;21870;42.812;74.628;2023-07-08T06:01:57;28.40;99.90
35746;DHT22;21870;42.812;74.628;2023-07-08T06:04:23;28.50;99.90
35746;DHT22;21870;42.812;74.628;2023-07-08T06:06:49;28.50;99.90
35746;DHT22;21870;42.812;74.628;2023-07-08T06:09:15;28.40;99.90
35746;DHT22;21870;42.812;74.628;2023-07-08T06:11:41;28.50;99.90
35746;DHT22;21870;42.812;74.628;2023-07-08T06:14:07;28.70;99.90
35746;DHT22;21870;42.812;74.628;2023-07-08T06:16:34;28.70;99.90
35746;DHT22;21870;42.812;74.628;2023-07-08T06:19:01;28.90;99.90
35746;DHT22;21870;42.812;74.628;2023-07-08T06:21:27;28.90;99.90
35746;DHT22;21870;42.812;74.628;2023-07-08T06:23:53;28.90;99.90
35746;DHT22;21870;42.812;74.628;2023-07-08T06:26:19;28.70;99.90
35746;DHT22;21870;42.812;74.628;2023-07-08T06:28:45;28.50;99.90
35746;DHT22;21870;42.812;74.628;2023-07-08T06:31:11;28.50;99.90
35746;DHT22;21870;42.812;74.628;2023-07-08T06:33:37;28.50;99.90
35746;DHT22;21870;42.812;74.628;2023-07-08T06:36:03;28.40;99.90
35746;DHT22;21870;42.812;74.628;2023-07-08T06:38:30;28.40;99.90
35746;DHT22;21870;42.812;74.628;2023-07-08T06:40:56;28.20;99.90
35746;DHT22;21870;42.812;74.628;2023-07-08T06:43:22;28.00;99.90
35746;DHT22;21870;42.812;74.628;2023-07-08T06:45:48;27.80;99.90
35746;DHT22;21870;42.812;74.628;2023-07-08T06:48:14;27.60;99.90
35746;DHT22;21870;42.812;74.628;2023-07-08T06:50:42;27.50;99.90
35746;DHT22;21870;42.812;74.628;2023-07-08T06:53:11;27.30;99.90
35746;DHT22;21870;42.812;74.628;2023-07-08T06:55:37;27.10;99.90
35746;DHT22;21870;42.812;74.628;2023-07-08T06:58:03;27.00;99.90
35746;DHT22;21870;42.812;74.628;2023-07-08T07:00:29;26.90;99.90
35746;DHT22;21870;42.812;74.628;2023-07-08T07:02:55;26.80;99.90
35746;DHT22;21870;42.812;74.628;2023-07-08T07:05:21;26.70;99.90
35746;DHT22;21870;42.812;74.628;2023-07-08T07:07:47;26.70;99.90
35746;DHT22;21870;42.812;74.628;2023-07-08T07:10:13;26.70;99.90
35746;DHT22;21870;42.812;74.628;2023-07-08T07:12:39;26.60;99.90
35746;DHT22;21870;42.812;74.628;2023-07-08T07:15:06;26.50;99.90
35746;DHT22;21870;42.812;74.628;2023-07-08T07:17:32;26.50;99.90
35746;DHT22;21870;42.812;74.628;2023-07-08T07:19:58;26.40;99.90
35746;DHT22;21870;42.812;74.628;2023-07-08T07:22:24;26.40;99.90
35746;DHT22;21870;42.812;74.628;2023-07-08T07:24:50;26.40;99.90
35746;DHT22;21870;42.812;74.628;2023-07-08T07:27:16;26.40;99.90
35746;DHT22;21870;42.812;74.628;2023-07-08T07:29:45;26.40;99.90
35746;DHT22;21870;42.812;74.628;2023-07-08T07:32:12;26.40;99.90
35746;DHT22;21870;42.812;74.628;2023-07-08T07:34:39;26.50;99.90
35746;DHT22;21870;42.812;74.628;2023-07-08T07:37:12;26.40;99.90
35746;DHT22;21870;42.812;74.628;2023-07-08T07:39:39;26.30;99.90
35746;DHT22;21870;42.812;74.628;2023-07-08T07:42:06;26.40;99.90
35746;DHT22;21870;42.812;74.628;2023-07-08T07:44:32;26.50;99.90
35746;DHT22;21870;42.812;74.628;2023-07-08T07:46:58;26.60;99.90
35746;DHT22;21870;42.812;74.628;2023-07-08T07:49:24;26.80;99.90
35746;DHT22;21870;42.812;74.628;2023-07-08T07:51:50;26.90;99.90
35746;DHT22;21870;42.812;74.628;2023-07-08T07:54:16;26.90;99.90
35746;DHT22;21870;42.812;74.628;2023-07-08T07:56:42;26.90;99.90
35746;DHT22;21870;42.812;74.628;2023-07-08T07:59:09;26.90;99.90
35746;DHT22;21870;42.812;74.628;2023-07-08T08:01:35;26.80;99.90
35746;DHT22;21870;42.812;74.628;2023-07-08T08:04:01;26.80;99.90
35746;DHT22;21870;42.812;74.628;2023-07-08T08:06:27;26.80;99.90
35746;DHT22;21870;42.812;74.628;2023-07-08T08:08:53;26.70;99.90
35746;DHT22;21870;42.812;74.628;2023-07-08T08:11:20;26.70;99.90
35746;DHT22;21870;42.812;74.628;2023-07-08T08:13:47;26.70;99.90
35746;DHT22;21870;42.812;74.628;2023-07-08T08:16:13;26.70;99.90
35746;DHT22;21870;42.812;74.628;2023-07-08T08:18:39;26.70;99.90
35746;DHT22;21870;42.812;74.628;2023-07-08T08:21:05;26.70;99.90
35746;DHT22;21870;42.812;74.628;2023-07-08T08:23:31;26.60;99.90
35746;DHT22;21870;42.812;74.628;2023-07-08T08:25:57;26.70;99.90
35746;DHT22;21870;42.812;74.628;2023-07-08T08:28:23;26.60;99.90
35746;DHT22;21870;42.812;74.628;2023-07-08T08:30:50;26.50;99.90
35746;DHT22;21870;42.812;74.628;2023-07-08T08:33:17;26.40;99.90
35746;DHT22;21870;42.812;74.628;2023-07-08T08:35:44;26.40;99.90
35746;DHT22;21870;42.812;74.628;2023-07-08T08:38:11;26.30;99.90
35746;DHT22;21870;42.812;74.628;2023-07-08T08:40:39;26.30;99.90
35746;DHT22;21870;42.812;74.628;2023-07-08T08:43:18;26.20;99.90
35746;DHT22;21870;42.812;74.628;2023-07-08T08:48:25;26.20;99.90
35746;DHT22;21870;42.812;74.628;2023-07-08T08:50:58;26.20;99.90
35746;DHT22;21870;42.812;74.628;2023-07-08T08:53:26;26.20;99.90
35746;DHT22;21870;42.812;74.628;2023-07-08T08:56:18;26.20;99.90
35746;DHT22;21870;42.812;74.628;2023-07-08T08:59:13;26.20;99.90
35746;DHT22;21870;42.812;74.628;2023-07-08T09:01:40;26.20;99.90
35746;DHT22;21870;42.812;74.628;2023-07-08T09:04:22;26.10;99.90
35746;DHT22;21870;42.812;74.628;2023-07-08T09:06:50;26.10;99.90
35746;DHT22;21870;42.812;74.628;2023-07-08T09:09:27;26.10;99.90
35746;DHT22;21870;42.812;74.628;2023-07-08T09:12:04;26.20;99.90
35746;DHT22;21870;42.812;74.628;2023-07-08T09:14:33;26.20;99.90
35746;DHT22;21870;42.812;74.628;2023-07-08T09:17:25;26.20;99.90
35746;DHT22;21870;42.812;74.628;2023-07-08T09:20:25;26.30;99.90
35746;DHT22;21870;42.812;74.628;2023-07-08T09:22:59;26.20;99.90
35746;DHT22;21870;42.812;74.628;2023-07-08T09:25:39;26.20;99.90
35746;DHT22;21870;42.812;74.628;2023-07-08T09:28:07;26.30;99.90
35746;DHT22;21870;42.812;74.628;2023-07-08T09:30:34;26.30;99.90
35746;DHT22;21870;42.812;74.628;2023-07-08T09:33:04;26.30;99.90
35746;DHT22;21870;42.812;74.628;2023-07-08T09:35:48;26.30;99.90
35746;DHT22;21870;42.812;74.628;2023-07-08T09:38:21;26.30;99.90
35746;DHT22;21870;42.812;74.628;2023-07-08T09:40:52;26.30;99.90
35746;DHT22;21870;42.812;74.628;2023-07-08T09:43:34;26.30;99.90
35746;DHT22;21870;42.812;74.628;2023-07-08T09:46:04;26.30;99.90
35746;DHT22;21870;42.812;74.628;2023-07-08T09:48:35;26.30;99.90
35746;DHT22;21870;42.812;74.628;2023-07-08T09:51:01;26.30;99.90
35746;DHT22;21870;42.812;74.628;2023-07-08T09:53:28;26.30;99.90
35746;DHT22;21870;42.812;74.628;2023-07-08T09:55:57;26.20;99.90
35746;DHT22;21870;42.812;74.628;2023-07-08T09:58:27;26.20;99.90
35746;DHT22;21870;42.812;74.628;2023-07-08T10:01:02;26.20;99.90
35746;DHT22;21870;42.812;74.628;2023-07-08T10:03:33;26.20;99.90
35746;DHT22;21870;42.812;74.628;2023-07-08T10:06:05;26.20;99.90
35746;DHT22;21870;42.812;74.628;2023-07-08T10:08:41;26.10;99.90
35746;DHT22;21870;42.812;74.628;2023-07-08T10:11:28;26.10;99.90
35746;DHT22;21870;42.812;74.628;2023-07-08T10:14:01;26.20;99.90
35746;DHT22;21870;42.812;74.628;2023-07-08T10:16:31;26.20;99.90
35746;DHT22;21870;42.812;74.628;2023-07-08T10:18:58;26.20;99.90
35746;DHT22;21870;42.812;74.628;2023-07-08T10:32:27;25.60;99.90
35746;DHT22;21870;42.812;74.628;2023-07-08T10:41:04;25.00;99.90
35746;DHT22;21870;42.812;74.628;2023-07-08T10:54:49;24.70;99.90
35746;DHT22;21870;42.812;74.628;2023-07-08T10:57:58;24.60;99.90
35746;DHT22;21870;42.812;74.628;2023-07-08T11:00:38;24.70;99.90
35746;DHT22;21870;42.812;74.628;2023-07-08T11:06:01;24.80;99.90
35746;DHT22;21870;42.812;74.628;2023-07-08T11:08:38;24.90;99.90
35746;DHT22;21870;42.812;74.628;2023-07-08T11:11:07;24.90;99.90
35746;DHT22;21870;42.812;74.628;2023-07-08T11:13:39;25.00;99.90
35746;DHT22;21870;42.812;74.628;2023-07-08T11:16:28;24.90;99.90
35746;DHT22;21870;42.812;74.628;2023-07-08T11:19:06;25.10;99.90
35746;DHT22;21870;42.812;74.628;2023-07-08T11:21:45;25.20;99.90
35746;DHT22;21870;42.812;74.628;2023-07-08T11:32:38;25.10;99.90
35746;DHT22;21870;42.812;74.628;2023-07-08T11:35:06;25.10;99.90
35746;DHT22;21870;42.812;74.628;2023-07-08T11:37:39;25.10;99.90
35746;DHT22;21870;42.812;74.628;2023-07-08T11:40:07;25.10;99.90
35746;DHT22;21870;42.812;74.628;2023-07-08T11:42:42;25.10;99.90
35746;DHT22;21870;42.812;74.628;2023-07-08T11:45:27;25.10;99.90
35746;DHT22;21870;42.812;74.628;2023-07-08T11:48:15;25.10;99.90
35746;DHT22;21870;42.812;74.628;2023-07-08T11:50:44;25.10;99.90
35746;DHT22;21870;42.812;74.628;2023-07-08T11:56:01;24.90;99.90
35746;DHT22;21870;42.812;74.628;2023-07-08T11:58:30;24.80;99.90
35746;DHT22;21870;42.812;74.628;2023-07-08T12:00:58;24.80;99.90
35746;DHT22;21870;42.812;74.628;2023-07-08T12:03:38;24.80;99.90
35746;DHT22;21870;42.812;74.628;2023-07-08T12:08:57;24.80;99.90
35746;DHT22;21870;42.812;74.628;2023-07-08T12:11:32;24.80;99.90
35746;DHT22;21870;42.812;74.628;2023-07-08T12:14:04;24.80;99.90
35746;DHT22;21870;42.812;74.628;2023-07-08T12:16:32;24.50;99.90
35746;DHT22;21870;42.812;74.628;2023-07-08T12:18:59;24.30;99.90
35746;DHT22;21870;42.812;74.628;2023-07-08T12:21:27;24.20;99.90
35746;DHT22;21870;42.812;74.628;2023-07-08T12:23:54;24.00;99.90
35746;DHT22;21870;42.812;74.628;2023-07-08T12:26:21;23.90;99.90
35746;DHT22;21870;42.812;74.628;2023-07-08T12:28:50;23.80;99.90
35746;DHT22;21870;42.812;74.628;2023-07-08T12:31:18;23.70;99.90
35746;DHT22;21870;42.812;74.628;2023-07-08T12:33:46;23.50;99.90
35746;DHT22;21870;42.812;74.628;2023-07-08T12:36:25;23.40;99.90
35746;DHT22;21870;42.812;74.628;2023-07-08T12:38:54;23.30;99.90
35746;DHT22;21870;42.812;74.628;2023-07-08T12:41:29;23.20;99.90
35746;DHT22;21870;42.812;74.628;2023-07-08T12:43:56;23.00;99.90
35746;DHT22;21870;42.812;74.628;2023-07-08T12:46:22;22.90;99.90
35746;DHT22;21870;42.812;74.628;2023-07-08T12:48:49;22.70;99.90
35746;DHT22;21870;42.812;74.628;2023-07-08T12:51:24;22.60;99.90
35746;DHT22;21870;42.812;74.628;2023-07-08T12:53:52;22.40;99.90
35746;DHT22;21870;42.812;74.628;2023-07-08T12:56:21;22.30;99.90
35746;DHT22;21870;42.812;74.628;2023-07-08T12:58:56;22.00;99.90
35746;DHT22;21870;42.812;74.628;2023-07-08T13:01:30;21.90;99.90
35746;DHT22;21870;42.812;74.628;2023-07-08T13:04:02;21.90;99.90
35746;DHT22;21870;42.812;74.628;2023-07-08T13:06:31;21.80;99.90
35746;DHT22;21870;42.812;74.628;2023-07-08T13:09:37;21.80;99.90
35746;DHT22;21870;42.812;74.628;2023-07-08T13:12:17;21.70;99.90
35746;DHT22;21870;42.812;74.628;2023-07-08T13:14:48;21.60;99.90
35746;DHT22;21870;42.812;74.628;2023-07-08T13:17:15;21.60;99.90
35746;DHT22;21870;42.812;74.628;2023-07-08T13:19:43;21.50;99.90
35746;DHT22;21870;42.812;74.628;2023-07-08T13:22:16;21.50;99.90
35746;DHT22;21870;42.812;74.628;2023-07-08T13:24:44;21.40;99.90
35746;DHT22;21870;42.812;74.628;2023-07-08T13:27:25;21.10;99.90
35746;DHT22;21870;42.812;74.628;2023-07-08T13:29:53;20.70;99.90
35746;DHT22;21870;42.812;74.628;2023-07-08T13:32:19;20.40;99.90
35746;DHT22;21870;42.812;74.628;2023-07-08T13:34:49;20.20;99.90
35746;DHT22;21870;42.812;74.628;2023-07-08T13:37:18;20.10;99.90
35746;DHT22;21870;42.812;74.628;2023-07-08T13:39:47;19.90;99.90
35746;DHT22;21870;42.812;74.628;2023-07-08T13:42:13;19.70;99.90
35746;DHT22;21870;42.812;74.628;2023-07-08T13:44:47;19.40;99.90
35746;DHT22;21870;42.812;74.628;2023-07-08T13:47:27;19.10;99.90
35746;DHT22;21870;42.812;74.628;2023-07-08T13:50:00;19.00;99.90
35746;DHT22;21870;42.812;74.628;2023-07-08T13:52:30;18.90;99.90
35746;DHT22;21870;42.812;74.628;2023-07-08T13:55:06;18.90;99.90
35746;DHT22;21870;42.812;74.628;2023-07-08T13:57:38;18.80;99.90
35746;DHT22;21870;42.812;74.628;2023-07-08T14:00:06;18.80;99.90
35746;DHT22;21870;42.812;74.628;2023-07-08T14:02:34;18.80;99.90
35746;DHT22;21870;42.812;74.628;2023-07-08T14:05:00;18.70;99.90
35746;DHT22;21870;42.812;74.628;2023-07-08T14:07:32;18.70;99.90
35746;DHT22;21870;42.812;74.628;2023-07-08T14:09:58;18.70;99.90
35746;DHT22;21870;42.812;74.628;2023-07-08T14:12:24;18.70;99.90
35746;DHT22;21870;42.812;74.628;2023-07-08T14:14:51;18.70;99.90
35746;DHT22;21870;42.812;74.628;2023-07-08T14:17:24;18.80;99.90
35746;DHT22;21870;42.812;74.628;2023-07-08T14:19:51;18.80;99.90
35746;DHT22;21870;42.812;74.628;2023-07-08T14:22:29;18.90;99.90
35746;DHT22;21870;42.812;74.628;2023-07-08T14:24:56;19.00;99.90
35746;DHT22;21870;42.812;74.628;2023-07-08T14:27:24;19.10;99.90
35746;DHT22;21870;42.812;74.628;2023-07-08T14:29:51;19.30;99.90
35746;DHT22;21870;42.812;74.628;2023-07-08T14:32:27;19.30;99.90
35746;DHT22;21870;42.812;74.628;2023-07-08T14:35:17;19.30;99.90
35746;DHT22;21870;42.812;74.628;2023-07-08T14:37:44;19.20;99.90
35746;DHT22;21870;42.812;74.628;2023-07-08T14:40:33;19.30;99.90
35746;DHT22;21870;42.812;74.628;2023-07-08T14:43:02;19.30;99.90
35746;DHT22;21870;42.812;74.628;2023-07-08T14:45:31;19.40;99.90
35746;DHT22;21870;42.812;74.628;2023-07-08T14:47:59;19.40;99.90
35746;DHT22;21870;42.812;74.628;2023-07-08T14:50:25;19.50;99.90
35746;DHT22;21870;42.812;74.628;2023-07-08T14:52:55;19.60;99.90
35746;DHT22;21870;42.812;74.628;2023-07-08T14:55:21;19.70;99.90
35746;DHT22;21870;42.812;74.628;2023-07-08T14:57:47;19.70;99.90
35746;DHT22;21870;42.812;74.628;2023-07-08T15:00:15;19.80;99.90
35746;DHT22;21870;42.812;74.628;2023-07-08T15:02:43;19.90;99.90
35746;DHT22;21870;42.812;74.628;2023-07-08T15:05:22;19.90;99.90
35746;DHT22;21870;42.812;74.628;2023-07-08T15:07:50;19.90;99.90
35746;DHT22;21870;42.812;74.628;2023-07-08T15:10:17;20.00;99.90
35746;DHT22;21870;42.812;74.628;2023-07-08T15:12:43;20.10;99.90
35746;DHT22;21870;42.812;74.628;2023-07-08T15:15:27;20.10;99.90
35746;DHT22;21870;42.812;74.628;2023-07-08T15:17:54;20.10;99.90
35746;DHT22;21870;42.812;74.628;2023-07-08T15:20:20;20.10;99.90
35746;DHT22;21870;42.812;74.628;2023-07-08T15:22:48;20.10;99.90
35746;DHT22;21870;42.812;74.628;2023-07-08T15:25:15;20.10;99.90
35746;DHT22;21870;42.812;74.628;2023-07-08T15:27:48;20.10;99.90
35746;DHT22;21870;42.812;74.628;2023-07-08T15:30:17;20.10;99.90
35746;DHT22;21870;42.812;74.628;2023-07-08T15:32:44;20.10;99.90
35746;DHT22;21870;42.812;74.628;2023-07-08T15:35:20;20.20;99.90
35746;DHT22;21870;42.812;74.628;2023-07-08T15:37:47;20.20;99.90
35746;DHT22;21870;42.812;74.628;2023-07-08T15:40:16;20.20;99.90
35746;DHT22;21870;42.812;74.628;2023-07-08T15:42:45;20.30;99.90
35746;DHT22;21870;42.812;74.628;2023-07-08T15:45:26;20.30;99.90
35746;DHT22;21870;42.812;74.628;2023-07-08T15:47:54;20.30;99.90
35746;DHT22;21870;42.812;74.628;2023-07-08T15:50:22;20.40;99.90
35746;DHT22;21870;42.812;74.628;2023-07-08T15:52:50;20.40;99.90
35746;DHT22;21870;42.812;74.628;2023-07-08T15:55:31;20.40;99.90
35746;DHT22;21870;42.812;74.628;2023-07-08T15:58:08;20.40;99.90
35746;DHT22;21870;42.812;74.628;2023-07-08T16:00:38;20.40;99.90
35746;DHT22;21870;42.812;74.628;2023-07-08T16:03:24;20.30;99.90
35746;DHT22;21870;42.812;74.628;2023-07-08T16:05:52;20.10;99.90
35746;DHT22;21870;42.812;74.628;2023-07-08T16:08:19;20.00;99.90
35746;DHT22;21870;42.812;74.628;2023-07-08T16:11:01;19.80;99.90
35746;DHT22;21870;42.812;74.628;2023-07-08T16:13:31;19.70;99.90
35746;DHT22;21870;42.812;74.628;2023-07-08T16:15:59;19.50;99.90
35746;DHT22;21870;42.812;74.628;2023-07-08T16:18:25;19.40;99.90
35746;DHT22;21870;42.812;74.628;2023-07-08T16:20:52;19.30;99.90
35746;DHT22;21870;42.812;74.628;2023-07-08T16:23:18;19.30;99.90